createdAt,value
2022-10-05T00:01:35.157Z,9.20
2022-10-05T00:04:29.078Z,9.20
2022-10-05T00:07:22.856Z,9.20
2022-10-05T00:10:17.855Z,9.30
2022-10-05T00:13:30.053Z,9.40
2022-10-05T00:16:22.279Z,9.10
2022-10-05T00:19:21.271Z,8.90
2022-10-05T00:22:21.505Z,8.80
2022-10-05T00:25:17.499Z,8.80
2022-10-05T00:28:29.254Z,8.70
2022-10-05T00:31:24.983Z,8.60
2022-10-05T00:34:17.726Z,8.50
2022-10-05T00:37:10.084Z,8.20
2022-10-05T00:40:03.300Z,8.10
2022-10-05T00:43:11.144Z,8.10
2022-10-05T00:46:21.083Z,8.00
2022-10-05T00:49:37.899Z,7.90
2022-10-05T00:52:38.972Z,7.90
2022-10-05T00:56:00.587Z,7.80
2022-10-05T00:59:10.492Z,7.70
2022-10-05T01:02:15.471Z,7.70
2022-10-05T01:05:29.560Z,7.70
2022-10-05T01:08:39.893Z,7.60
2022-10-05T01:12:01.706Z,7.70
2022-10-05T01:15:10.870Z,7.80
2022-10-05T01:18:27.712Z,8.00
2022-10-05T01:21:35.452Z,7.60
2022-10-05T01:25:08.434Z,7.60
2022-10-05T01:28:11.393Z,7.60
2022-10-05T01:31:24.277Z,7.70
2022-10-05T01:34:38.000Z,7.60
2022-10-05T01:37:35.528Z,7.20
2022-10-05T01:40:33.168Z,7.00
2022-10-05T01:43:49.210Z,7.00
2022-10-05T01:46:56.618Z,7.00
2022-10-05T01:50:23.980Z,6.90
2022-10-05T01:53:32.565Z,6.90
2022-10-05T01:56:46.623Z,6.90
2022-10-05T02:00:07.697Z,7.00
2022-10-05T02:03:02.989Z,7.10
2022-10-05T02:06:18.610Z,7.10
2022-10-05T02:09:37.909Z,7.10
2022-10-05T02:12:34.935Z,6.80
2022-10-05T02:15:34.008Z,6.70
2022-10-05T02:18:38.607Z,6.80
2022-10-05T02:21:34.340Z,6.90
2022-10-05T02:24:32.902Z,6.90
2022-10-05T02:27:30.122Z,7.10
2022-10-05T02:30:22.484Z,7.30
2022-10-05T02:33:38.664Z,7.60
2022-10-05T02:36:35.605Z,7.70
2022-10-05T02:39:43.302Z,7.90
2022-10-05T02:43:01.033Z,8.00
2022-10-05T02:46:07.867Z,8.00
2022-10-05T02:49:18.683Z,8.00
2022-10-05T02:52:30.979Z,7.90
2022-10-05T02:55:47.876Z,7.90
2022-10-05T02:58:59.000Z,7.80
2022-10-05T03:01:55.871Z,7.70
2022-10-05T03:05:06.496Z,7.70
2022-10-05T03:08:05.605Z,7.70
2022-10-05T03:11:27.993Z,7.70
2022-10-05T03:14:57.596Z,7.70
2022-10-05T03:17:53.327Z,7.70
2022-10-05T03:21:25.293Z,7.80
2022-10-05T03:24:28.738Z,7.70
2022-10-05T03:28:17.891Z,7.30
2022-10-05T03:31:25.197Z,6.90
2022-10-05T03:34:29.773Z,6.40
2022-10-05T03:38:01.146Z,6.20
2022-10-05T03:40:58.736Z,6.20
2022-10-05T03:44:28.320Z,6.10
2022-10-05T03:47:31.712Z,6.10
2022-10-05T03:50:46.714Z,6.00
2022-10-05T03:53:52.567Z,5.90
2022-10-05T03:56:51.733Z,5.80
2022-10-05T04:00:07.054Z,6.00
2022-10-05T04:03:04.389Z,6.10
2022-10-05T04:06:00.970Z,6.10
2022-10-05T04:09:20.180Z,6.00
2022-10-05T04:12:38.490Z,6.00
2022-10-05T04:16:02.602Z,6.10
2022-10-05T04:19:24.940Z,6.40
2022-10-05T04:22:25.439Z,6.50
2022-10-05T04:25:29.535Z,6.70
2022-10-05T04:28:33.280Z,6.60
2022-10-05T04:32:00.606Z,6.20
2022-10-05T04:34:52.674Z,5.80
2022-10-05T04:38:09.429Z,5.80
2022-10-05T04:41:13.131Z,5.70
2022-10-05T04:44:19.732Z,5.80
2022-10-05T04:47:23.671Z,6.00
2022-10-05T04:50:35.607Z,6.20
2022-10-05T04:53:30.677Z,6.40
2022-10-05T04:56:35.313Z,6.40
2022-10-05T04:59:41.888Z,6.40
2022-10-05T05:02:47.907Z,6.00
2022-10-05T05:06:20.967Z,5.90
2022-10-05T05:09:25.262Z,5.90
2022-10-05T05:12:41.592Z,6.20
2022-10-05T05:15:40.976Z,6.90
2022-10-05T05:18:48.998Z,7.50
2022-10-05T05:21:54.007Z,7.90
2022-10-05T05:25:19.193Z,8.40
2022-10-05T05:29:05.439Z,8.50
2022-10-05T05:32:17.812Z,8.70
2022-10-05T05:35:24.784Z,9.30
2022-10-05T05:38:47.229Z,10.30
2022-10-05T05:41:48.922Z,11.20
2022-10-05T05:44:50.292Z,11.60
2022-10-05T05:47:51.968Z,12.10
2022-10-05T05:51:05.516Z,12.60
2022-10-05T05:54:44.338Z,13.00
2022-10-05T05:58:03.480Z,13.60
2022-10-05T06:01:00.246Z,14.40
2022-10-05T06:04:24.232Z,14.30
2022-10-05T06:07:30.833Z,13.90
2022-10-05T06:10:42.245Z,13.70
2022-10-05T06:13:38.629Z,13.70
2022-10-05T06:16:47.320Z,13.00
2022-10-05T06:19:41.666Z,13.20
2022-10-05T06:22:38.883Z,13.60
2022-10-05T06:25:49.437Z,14.40
2022-10-05T06:28:42.399Z,14.60
2022-10-05T06:32:10.387Z,15.30
2022-10-05T06:35:31.523Z,17.60
2022-10-05T06:38:35.959Z,19.50
2022-10-05T06:42:05.286Z,20.60
2022-10-05T06:45:15.566Z,21.20
2022-10-05T06:48:27.359Z,21.20
2022-10-05T06:51:37.380Z,21.30
2022-10-05T06:54:32.537Z,21.60
2022-10-05T06:57:33.262Z,21.30
2022-10-05T07:00:29.374Z,20.10
2022-10-05T07:03:40.664Z,19.90
2022-10-05T07:07:08.035Z,19.70
2022-10-05T07:10:08.602Z,19.00
2022-10-05T07:13:29.783Z,18.30
2022-10-05T07:16:58.946Z,17.90
2022-10-05T07:20:26.095Z,17.30
2022-10-05T07:23:24.833Z,17.90
2022-10-05T07:26:37.336Z,18.20
2022-10-05T07:29:47.957Z,17.80
2022-10-05T07:33:05.361Z,17.50
2022-10-05T07:36:25.174Z,17.50
2022-10-05T07:39:55.225Z,17.60
2022-10-05T07:42:57.794Z,17.90
2022-10-05T07:45:58.604Z,18.00
2022-10-05T07:49:00.054Z,18.00
2022-10-05T07:52:02.660Z,17.70
2022-10-05T07:55:07.442Z,17.90
2022-10-05T07:58:21.633Z,18.20
2022-10-05T08:01:21.506Z,18.40
2022-10-05T08:05:03.273Z,18.60
2022-10-05T08:08:06.790Z,19.10
2022-10-05T08:11:12.084Z,18.60
2022-10-05T08:14:39.736Z,18.60
2022-10-05T08:18:16.108Z,18.50
2022-10-05T08:21:12.136Z,18.40
2022-10-05T08:24:26.093Z,18.60
2022-10-05T08:27:25.547Z,18.40
2022-10-05T08:30:17.955Z,18.20
2022-10-05T08:33:17.600Z,17.90
2022-10-05T08:36:14.457Z,17.40
2022-10-05T08:39:15.124Z,17.00
2022-10-05T08:42:22.183Z,16.70
2022-10-05T08:45:30.554Z,16.50
2022-10-05T08:48:35.941Z,16.90
2022-10-05T08:51:50.107Z,17.10
2022-10-05T08:54:56.238Z,17.00
2022-10-05T08:58:25.258Z,17.00
2022-10-05T09:01:31.638Z,17.20
2022-10-05T09:04:35.975Z,17.50
2022-10-05T09:08:05.316Z,17.80
2022-10-05T09:11:19.036Z,18.00
2022-10-05T09:14:19.940Z,18.10
2022-10-05T09:17:50.075Z,18.30
2022-10-05T09:20:45.136Z,18.10
2022-10-05T09:23:45.029Z,18.20
2022-10-05T09:26:59.794Z,18.70
2022-10-05T09:30:20.287Z,18.40
2022-10-05T09:33:25.976Z,18.50
2022-10-05T09:36:39.095Z,18.80
2022-10-05T09:39:40.291Z,18.60
2022-10-05T09:42:51.773Z,18.20
2022-10-05T09:46:06.929Z,18.00
2022-10-05T09:49:19.984Z,17.80
2022-10-05T09:52:38.259Z,17.90
2022-10-05T09:55:47.403Z,17.90
2022-10-05T09:58:45.899Z,18.10
2022-10-05T10:01:51.790Z,18.30
2022-10-05T10:05:08.511Z,18.50
2022-10-05T10:08:14.469Z,18.90
2022-10-05T10:11:34.696Z,19.10
2022-10-05T10:15:02.528Z,19.20
2022-10-05T10:18:39.658Z,19.30
2022-10-05T10:21:42.186Z,19.30
2022-10-05T10:24:52.224Z,19.40
2022-10-05T10:28:03.076Z,19.60
2022-10-05T10:31:33.165Z,19.70
2022-10-05T10:35:01.327Z,19.30
2022-10-05T10:38:05.995Z,19.10
2022-10-05T10:41:03.632Z,19.40
2022-10-05T10:44:32.897Z,19.50
2022-10-05T10:47:33.544Z,19.70
2022-10-05T10:50:43.597Z,19.80
2022-10-05T10:54:03.597Z,19.80
2022-10-05T10:56:58.718Z,19.90
2022-10-05T11:00:08.944Z,19.90
2022-10-05T11:03:32.318Z,19.90
2022-10-05T11:06:45.876Z,19.70
2022-10-05T11:09:43.715Z,19.80
2022-10-05T11:12:54.701Z,19.80
2022-10-05T11:16:18.793Z,19.70
2022-10-05T11:19:40.738Z,19.80
2022-10-05T11:22:44.886Z,19.70
2022-10-05T11:26:04.838Z,19.60
2022-10-05T11:29:02.857Z,19.50
2022-10-05T11:32:20.923Z,19.40
2022-10-05T11:35:31.186Z,19.40
2022-10-05T11:39:10.544Z,19.60
2022-10-05T11:42:34.339Z,19.60
2022-10-05T11:45:36.306Z,19.70
2022-10-05T11:48:47.332Z,19.80
2022-10-05T11:51:51.289Z,19.70
2022-10-05T11:55:17.105Z,19.40
2022-10-05T11:58:23.256Z,19.30
2022-10-05T12:01:22.899Z,19.40
2022-10-05T12:04:48.583Z,19.50
2022-10-05T12:07:50.548Z,19.40
2022-10-05T12:11:04.097Z,19.40
2022-10-05T12:14:24.923Z,19.30
2022-10-05T12:17:35.276Z,19.30
2022-10-05T12:20:47.731Z,19.30
2022-10-05T12:24:04.980Z,19.40
2022-10-05T12:27:00.943Z,19.30
2022-10-05T12:30:32.586Z,19.40
2022-10-05T12:33:40.160Z,19.60
2022-10-05T12:37:03.695Z,19.60
2022-10-05T12:40:20.614Z,19.50
2022-10-05T12:43:28.406Z,19.30
2022-10-05T12:46:44.477Z,19.30
2022-10-05T12:50:11.058Z,19.10
2022-10-05T12:53:03.145Z,19.10
2022-10-05T12:56:01.620Z,19.10
2022-10-05T12:59:04.601Z,19.10
2022-10-05T13:02:18.507Z,19.30
2022-10-05T13:05:10.582Z,19.30
2022-10-05T13:08:17.805Z,19.20
2022-10-05T13:11:22.177Z,19.20
2022-10-05T13:14:38.860Z,19.20
2022-10-05T13:17:50.370Z,19.00
2022-10-05T13:20:51.629Z,18.70
2022-10-05T13:24:03.711Z,18.50
2022-10-05T13:27:13.752Z,18.40
2022-10-05T13:30:19.074Z,18.30
2022-10-05T13:33:38.765Z,18.20
2022-10-05T13:36:56.809Z,18.10
2022-10-05T13:40:24.086Z,18.00
2022-10-05T13:43:33.519Z,17.90
2022-10-05T13:46:42.757Z,17.90
2022-10-05T13:53:18.484Z,18.00
2022-10-05T13:56:26.516Z,18.10
2022-10-05T13:59:41.929Z,18.10
2022-10-05T14:02:41.365Z,18.00
2022-10-05T14:05:33.497Z,18.00
2022-10-05T14:08:46.482Z,18.00
2022-10-05T14:11:51.753Z,18.10
2022-10-05T14:14:53.742Z,18.20
2022-10-05T14:17:46.640Z,18.20
2022-10-05T14:20:38.819Z,18.30
2022-10-05T14:23:31.379Z,18.20
2022-10-05T14:26:26.463Z,18.10
2022-10-05T14:29:23.664Z,18.20
2022-10-05T14:32:18.661Z,18.20
2022-10-05T14:35:12.843Z,18.30
2022-10-05T14:38:25.714Z,18.20
2022-10-05T14:41:21.118Z,18.20
2022-10-05T14:44:13.212Z,18.10
2022-10-05T14:47:22.765Z,18.10
2022-10-05T14:50:26.325Z,18.00
2022-10-05T14:53:21.458Z,17.90
2022-10-05T14:56:38.233Z,17.80
2022-10-05T14:59:49.374Z,17.70
2022-10-05T15:03:16.265Z,17.60
2022-10-05T15:06:18.444Z,17.50
2022-10-05T15:09:19.635Z,17.50
2022-10-05T15:12:18.949Z,17.50
2022-10-05T15:15:22.499Z,17.40
2022-10-05T15:18:41.770Z,17.40
2022-10-05T15:21:56.042Z,17.30
2022-10-05T15:25:01.765Z,17.30
2022-10-05T15:28:08.601Z,17.20
2022-10-05T15:31:05.134Z,17.20
2022-10-05T15:34:18.038Z,17.10
2022-10-05T15:37:10.165Z,17.00
2022-10-05T15:40:15.196Z,16.90
2022-10-05T15:43:20.930Z,16.90
2022-10-05T15:46:15.739Z,16.90
2022-10-05T15:49:28.313Z,16.90
2022-10-05T15:52:43.721Z,16.80
2022-10-05T15:55:53.229Z,16.80
2022-10-05T15:58:49.989Z,16.60
2022-10-05T16:01:52.554Z,16.50
2022-10-05T16:04:59.985Z,16.40
2022-10-05T16:08:14.022Z,16.40
2022-10-05T16:11:14.588Z,16.30
2022-10-05T16:14:30.200Z,16.20
2022-10-05T16:18:07.513Z,16.20
2022-10-05T16:21:14.683Z,16.10
2022-10-05T16:24:06.853Z,16.00
2022-10-05T16:27:03.514Z,15.90
2022-10-05T16:30:05.263Z,15.90
2022-10-05T16:33:29.172Z,15.80
2022-10-05T16:37:05.267Z,15.80
2022-10-05T16:40:35.998Z,15.70
2022-10-05T16:43:53.657Z,15.70
2022-10-05T16:47:08.736Z,15.70
2022-10-05T16:50:20.035Z,15.60
2022-10-05T16:53:38.088Z,15.60
2022-10-05T16:56:41.377Z,15.60
2022-10-05T16:59:51.467Z,15.40
2022-10-05T17:02:50.831Z,15.50
2022-10-05T17:06:07.277Z,15.40
2022-10-05T17:09:05.159Z,15.50
2022-10-05T17:12:34.280Z,15.40
2022-10-05T17:15:55.570Z,15.30
2022-10-05T17:19:12.027Z,15.30
2022-10-05T17:22:28.507Z,15.20
2022-10-05T17:25:52.666Z,15.20
2022-10-05T17:29:22.645Z,15.10
2022-10-05T17:32:17.306Z,15.00
2022-10-05T17:35:18.216Z,15.00
2022-10-05T17:38:18.154Z,14.70
2022-10-05T17:41:15.962Z,14.60
2022-10-05T17:44:16.439Z,14.40
2022-10-05T17:47:13.956Z,14.30
2022-10-05T17:50:30.987Z,14.20
2022-10-05T17:54:03.011Z,14.20
2022-10-05T17:56:57.944Z,14.20
2022-10-05T17:59:57.189Z,14.20
2022-10-05T18:02:49.394Z,14.20
2022-10-05T18:05:41.576Z,14.20
2022-10-05T18:08:37.837Z,14.20
2022-10-05T18:11:35.306Z,14.30
2022-10-05T18:14:27.535Z,14.30
2022-10-05T18:17:51.190Z,14.30
2022-10-05T18:21:23.522Z,14.30
2022-10-05T18:24:26.334Z,14.20
2022-10-05T18:27:39.307Z,14.30
2022-10-05T18:30:54.970Z,14.20
2022-10-05T18:34:11.465Z,14.20
2022-10-05T18:37:25.616Z,14.20
2022-10-05T18:40:21.275Z,14.10
2022-10-05T18:43:32.829Z,14.10
2022-10-05T18:46:30.374Z,14.10
2022-10-05T18:49:30.403Z,14.10
2022-10-05T18:52:50.227Z,14.10
2022-10-05T18:55:54.729Z,14.00
2022-10-05T18:58:57.039Z,13.90
2022-10-05T19:01:49.358Z,14.00
2022-10-05T19:05:42.475Z,13.90
2022-10-05T19:08:39.168Z,13.90
2022-10-05T19:11:41.101Z,13.70
2022-10-05T19:15:06.357Z,13.70
2022-10-05T19:18:18.553Z,13.50
2022-10-05T19:21:52.537Z,13.50
2022-10-05T19:24:50.586Z,13.60
2022-10-05T19:28:06.056Z,13.50
2022-10-05T19:31:13.359Z,13.50
2022-10-05T19:34:08.977Z,13.50
2022-10-05T19:37:15.619Z,13.40
2022-10-05T19:40:12.424Z,13.40
2022-10-05T19:43:33.845Z,13.40
2022-10-05T19:46:32.156Z,13.40
2022-10-05T19:49:51.897Z,13.30
2022-10-05T19:52:49.121Z,13.30
2022-10-05T19:55:44.398Z,13.20
2022-10-05T19:58:39.749Z,13.20
2022-10-05T20:01:36.926Z,13.20
2022-10-05T20:04:47.502Z,13.20
2022-10-05T20:07:39.704Z,13.20
2022-10-05T20:10:31.998Z,13.20
2022-10-05T20:13:24.139Z,13.10
2022-10-05T20:16:36.739Z,13.00
2022-10-05T20:19:50.556Z,13.00
2022-10-05T20:22:48.344Z,13.00
2022-10-05T20:25:41.476Z,13.00
2022-10-05T20:28:33.921Z,12.80
2022-10-05T20:31:26.209Z,12.70
2022-10-05T20:34:18.503Z,12.60
2022-10-05T20:37:15.702Z,12.60
2022-10-05T20:40:08.545Z,12.60
2022-10-05T20:43:00.716Z,12.60
2022-10-05T20:45:53.809Z,12.60
2022-10-05T20:48:45.997Z,12.40
2022-10-05T20:51:40.113Z,12.00
2022-10-05T20:54:32.736Z,11.50
2022-10-05T20:57:25.295Z,11.30
2022-10-05T21:00:17.510Z,11.20
2022-10-05T21:03:09.739Z,11.10
2022-10-05T21:06:01.836Z,11.00
2022-10-05T21:08:54.458Z,11.00
2022-10-05T21:11:48.828Z,10.90
2022-10-05T21:14:41.014Z,10.90
2022-10-05T21:17:34.662Z,10.70
2022-10-05T21:20:26.797Z,10.80
2022-10-05T21:23:18.968Z,10.70
2022-10-05T21:26:11.866Z,10.70
2022-10-05T21:29:07.792Z,10.70
2022-10-05T21:32:02.724Z,10.70
2022-10-05T21:34:54.876Z,10.50
2022-10-05T21:37:47.014Z,10.40
2022-10-05T21:40:39.293Z,10.50
2022-10-05T21:43:31.780Z,10.70
2022-10-05T21:46:27.619Z,10.90
2022-10-05T21:49:20.119Z,11.00
2022-10-05T21:52:12.958Z,11.20
2022-10-05T21:55:05.998Z,11.30
2022-10-05T21:57:58.901Z,11.40
2022-10-05T22:00:51.054Z,11.50
2022-10-05T22:03:43.272Z,11.50
2022-10-05T22:06:35.875Z,11.60
2022-10-05T22:09:28.020Z,11.50
2022-10-05T22:12:20.158Z,11.50
2022-10-05T22:15:12.381Z,11.60
2022-10-05T22:18:04.600Z,11.70
2022-10-05T22:20:56.789Z,11.60
2022-10-05T22:23:49.219Z,11.50
2022-10-05T22:26:43.618Z,11.50
2022-10-05T22:29:36.448Z,11.60
2022-10-05T22:32:28.573Z,11.50
2022-10-05T22:35:20.766Z,11.60
2022-10-05T22:38:12.872Z,11.50
2022-10-05T22:41:10.013Z,11.40
2022-10-05T22:44:02.782Z,11.50
2022-10-05T22:46:54.860Z,11.40
2022-10-05T22:49:46.971Z,11.40
2022-10-05T22:52:39.082Z,11.30
2022-10-05T22:59:37.143Z,11.30
2022-10-05T23:02:29.286Z,11.40
2022-10-05T23:05:21.457Z,11.30
2022-10-05T23:08:13.557Z,11.30
2022-10-05T23:11:07.768Z,11.30
2022-10-05T23:14:00.480Z,11.20
2022-10-05T23:16:52.788Z,11.10
2022-10-05T23:19:44.941Z,11.00
2022-10-05T23:22:38.499Z,10.90
2022-10-05T23:25:30.626Z,10.90
2022-10-05T23:28:22.799Z,10.80
2022-10-05T23:31:17.817Z,10.70
2022-10-05T23:34:10.026Z,10.70
2022-10-05T23:37:02.273Z,10.80
2022-10-05T23:39:54.454Z,10.90
2022-10-05T23:42:47.012Z,10.90
2022-10-05T23:45:39.178Z,11.00
2022-10-05T23:48:32.038Z,11.00
2022-10-05T23:51:24.458Z,11.10
2022-10-05T23:54:16.598Z,11.10
2022-10-05T23:57:08.769Z,11.10
